Prague, Arkansas
Current Conditions -  °F | °C
As of 10:28 PM on Thursday 18 Dec 2014 (Local Time) from KPBF Reporting Station
Broken Clouds Broken Clouds  
Wind Chill: 39°   Ceiling: 600
Heat Index: 42°   Visibility: 7mi
Dew Point: 39°   Wind: 5mph
Humidity: 89%   Direction: 30°NNE
Pressure: 30.24"   Gusts: NA
Location:  34.3151°N, 92.3357°W
Report Text: KPBF 190428Z AUTO 03004KT 7SM BKN006 06/04 A3024 RMK AO2 T00560039
Loading
Personal Weather Stations






























Interactive Weather Map New forecast layout! Learn more

10-Day Weather Forecast

Advertisements
Track Severe Weather on mobile